sensor_id;sensor_type;location;lat;lon;timestamp;pressure;altitude;pressure_sealevel;temperature;humidity
61880;BME280;47817;52.798;27.544;2023-01-27T00:01:16;1027.9;;;0.7;76.1
61880;BME280;47817;52.798;27.544;2023-01-27T00:06:49;1027.9;;;0.7;76
61880;BME280;47817;52.798;27.544;2023-01-27T00:11:46;1028;;;0.7;75.9
61880;BME280;47817;52.798;27.544;2023-01-27T00:16:36;1028;;;0.7;75.9
61880;BME280;47817;52.798;27.544;2023-01-27T00:21:34;1028;;;0.7;76.1
61880;BME280;47817;52.798;27.544;2023-01-27T00:26:17;1028;;;0.7;76
61880;BME280;47817;52.798;27.544;2023-01-27T00:31:36;1028;;;0.7;76
61880;BME280;47817;52.798;27.544;2023-01-27T00:36:06;1028;;;0.7;76.1
61880;BME280;47817;52.798;27.544;2023-01-27T00:41:24;1028;;;0.7;76.2
61880;BME280;47817;52.798;27.544;2023-01-27T00:46:06;1028;;;0.7;76.2
61880;BME280;47817;52.798;27.544;2023-01-27T00:51:34;1028;;;0.7;76.1
61880;BME280;47817;52.798;27.544;2023-01-27T00:56:26;1028;;;0.6;76.2
61880;BME280;47817;52.798;27.544;2023-01-27T01:01:46;1027.9;;;0.7;76.3
61880;BME280;47817;52.798;27.544;2023-01-27T01:06:36;1027.9;;;0.6;76.2
61880;BME280;47817;52.798;27.544;2023-01-27T01:11:34;1027.9;;;0.6;76.2
61880;BME280;47817;52.798;27.544;2023-01-27T01:16:50;1027.8;;;0.6;76.3
61880;BME280;47817;52.798;27.544;2023-01-27T01:21:16;1027.8;;;0.5;76.3
61880;BME280;47817;52.798;27.544;2023-01-27T01:26:36;1027.7;;;0.5;76.6
61880;BME280;47817;52.798;27.544;2023-01-27T01:31:17;1027.7;;;0.5;76.6
61880;BME280;47817;52.798;27.544;2023-01-27T01:36:19;1027.7;;;0.6;76.5
61880;BME280;47817;52.798;27.544;2023-01-27T01:41:08;1027.6;;;0.6;76.4
61880;BME280;47817;52.798;27.544;2023-01-27T01:46:46;1027.6;;;0.6;76.7
61880;BME280;47817;52.798;27.544;2023-01-27T01:51:25;1027.5;;;0.6;76.7
61880;BME280;47817;52.798;27.544;2023-01-27T01:56:37;1027.5;;;0.6;76.4
61880;BME280;47817;52.798;27.544;2023-01-27T02:01:36;1027.6;;;0.5;76.7
61880;BME280;47817;52.798;27.544;2023-01-27T02:06:49;1027.6;;;0.5;77
61880;BME280;47817;52.798;27.544;2023-01-27T02:11:06;1027.7;;;0.6;76.9
61880;BME280;47817;52.798;27.544;2023-01-27T02:16:16;1027.7;;;0.6;76.7
61880;BME280;47817;52.798;27.544;2023-01-27T02:21:42;1027.7;;;0.6;76.6
61880;BME280;47817;52.798;27.544;2023-01-27T02:26:19;1027.6;;;0.6;76.7
61880;BME280;47817;52.798;27.544;2023-01-27T02:31:37;1027.6;;;0.6;76.7
61880;BME280;47817;52.798;27.544;2023-01-27T02:36:29;1027.5;;;0.6;76.7
61880;BME280;47817;52.798;27.544;2023-01-27T02:41:51;1027.5;;;0.6;76.7
61880;BME280;47817;52.798;27.544;2023-01-27T02:46:28;1027.5;;;0.5;76.7
61880;BME280;47817;52.798;27.544;2023-01-27T02:51:52;1027.5;;;0.5;76.8
61880;BME280;47817;52.798;27.544;2023-01-27T02:56:28;1027.4;;;0.5;76.8
61880;BME280;47817;52.798;27.544;2023-01-27T03:01:06;1027.4;;;0.5;76.7
61880;BME280;47817;52.798;27.544;2023-01-27T03:06:14;1027.4;;;0.5;76.7
61880;BME280;47817;52.798;27.544;2023-01-27T03:11:16;1027.5;;;0.4;77
61880;BME280;47817;52.798;27.544;2023-01-27T03:16:14;1027.5;;;0.4;77.4
61880;BME280;47817;52.798;27.544;2023-01-27T03:21:06;1027.5;;;0.5;77.3
61880;BME280;47817;52.798;27.544;2023-01-27T03:26:30;1027.5;;;0.5;77.1
61880;BME280;47817;52.798;27.544;2023-01-27T03:31:46;1027.4;;;0.5;77
61880;BME280;47817;52.798;27.544;2023-01-27T03:36:06;1027.3;;;0.5;76.9
61880;BME280;47817;52.798;27.544;2023-01-27T03:41:06;1027.3;;;0.5;76.9
61880;BME280;47817;52.798;27.544;2023-01-27T03:46:50;1027.4;;;0.5;76.8
61880;BME280;47817;52.798;27.544;2023-01-27T03:51:34;1027.4;;;0.5;76.7
61880;BME280;47817;52.798;27.544;2023-01-27T03:56:15;1027.5;;;0.5;76.8
61880;BME280;47817;52.798;27.544;2023-01-27T04:01:15;1027.5;;;0.5;76.8
61880;BME280;47817;52.798;27.544;2023-01-27T04:06:18;1027.6;;;0.5;76.8
61880;BME280;47817;52.798;27.544;2023-01-27T04:11:30;1027.6;;;0.5;76.7
61880;BME280;47817;52.798;27.544;2023-01-27T04:16:54;1027.6;;;0.5;76.7
61880;BME280;47817;52.798;27.544;2023-01-27T04:21:18;1027.5;;;0.5;76.5
61880;BME280;47817;52.798;27.544;2023-01-27T04:26:52;1027.5;;;0.4;76.4
61880;BME280;47817;52.798;27.544;2023-01-27T04:31:30;1027.5;;;0.4;76.4
61880;BME280;47817;52.798;27.544;2023-01-27T04:36:50;1027.5;;;0.4;76.5
61880;BME280;47817;52.798;27.544;2023-01-27T04:41:16;1027.5;;;0.4;76.4
61880;BME280;47817;52.798;27.544;2023-01-27T04:46:38;1027.6;;;0.4;76.4
61880;BME280;47817;52.798;27.544;2023-01-27T04:51:06;1027.6;;;0.5;76.4
61880;BME280;47817;52.798;27.544;2023-01-27T04:56:54;1027.7;;;0.5;76.3
61880;BME280;47817;52.798;27.544;2023-01-27T05:01:14;1027.7;;;0.6;76.1
61880;BME280;47817;52.798;27.544;2023-01-27T05:06:50;1027.8;;;0.6;75.9
61880;BME280;47817;52.798;27.544;2023-01-27T05:11:54;1027.9;;;0.6;76
61880;BME280;47817;52.798;27.544;2023-01-27T05:16:43;1027.9;;;0.7;75.8
61880;BME280;47817;52.798;27.544;2023-01-27T05:21:28;1027.9;;;0.6;75.8
61880;BME280;47817;52.798;27.544;2023-01-27T05:26:32;1028;;;0.6;75.7
61880;BME280;47817;52.798;27.544;2023-01-27T05:31:46;1027.9;;;0.6;75.6
61880;BME280;47817;52.798;27.544;2023-01-27T05:36:07;1027.9;;;0.6;75.5
61880;BME280;47817;52.798;27.544;2023-01-27T05:41:38;1028;;;0.6;75.4
61880;BME280;47817;52.798;27.544;2023-01-27T05:46:07;1028;;;0.6;75.2
61880;BME280;47817;52.798;27.544;2023-01-27T05:51:52;1028.1;;;0.6;75.2
61880;BME280;47817;52.798;27.544;2023-01-27T05:56:28;1028.1;;;0.6;75.1
61880;BME280;47817;52.798;27.544;2023-01-27T06:01:50;1028.1;;;0.6;75.1
61880;BME280;47817;52.798;27.544;2023-01-27T06:06:50;1028.2;;;0.8;74.8
61880;BME280;47817;52.798;27.544;2023-01-27T06:11:30;1028.2;;;0.7;74.9
61880;BME280;47817;52.798;27.544;2023-01-27T06:16:38;1028.2;;;0.6;74.6
61880;BME280;47817;52.798;27.544;2023-01-27T06:21:18;1028.2;;;0.6;74.4
61880;BME280;47817;52.798;27.544;2023-01-27T06:26:32;1028.3;;;0.6;74.3
61880;BME280;47817;52.798;27.544;2023-01-27T06:31:19;1028.3;;;0.6;74.2
61880;BME280;47817;52.798;27.544;2023-01-27T06:36:40;1028.3;;;0.6;74.3
61880;BME280;47817;52.798;27.544;2023-01-27T06:41:06;1028.3;;;0.7;74.3
61880;BME280;47817;52.798;27.544;2023-01-27T06:46:38;1028.3;;;0.8;74.2
61880;BME280;47817;52.798;27.544;2023-01-27T06:51:06;1028.4;;;0.9;74.2
61880;BME280;47817;52.798;27.544;2023-01-27T06:56:54;1028.4;;;1;74.1
61880;BME280;47817;52.798;27.544;2023-01-27T07:01:40;1028.4;;;1.1;74
61880;BME280;47817;52.798;27.544;2023-01-27T07:06:40;1028.5;;;1.1;73.5
61880;BME280;47817;52.798;27.544;2023-01-27T07:11:54;1028.5;;;1.1;73.4
61880;BME280;47817;52.798;27.544;2023-01-27T07:16:16;1028.6;;;1.2;73.3
61880;BME280;47817;52.798;27.544;2023-01-27T07:21:42;1028.6;;;1.3;73.1
61880;BME280;47817;52.798;27.544;2023-01-27T07:26:18;1028.7;;;1.3;72.9
61880;BME280;47817;52.798;27.544;2023-01-27T07:31:40;1028.7;;;1.3;72.7
61880;BME280;47817;52.798;27.544;2023-01-27T07:36:18;1028.7;;;1.4;72.5
61880;BME280;47817;52.798;27.544;2023-01-27T07:41:51;1028.8;;;1.4;72.1
61880;BME280;47817;52.798;27.544;2023-01-27T07:46:28;1028.7;;;1.5;71.9
61880;BME280;47817;52.798;27.544;2023-01-27T07:51:42;1028.7;;;1.6;71.6
61880;BME280;47817;52.798;27.544;2023-01-27T07:56:42;1028.7;;;1.7;71.2
61880;BME280;47817;52.798;27.544;2023-01-27T08:01:48;1028.7;;;1.8;70.8
61880;BME280;47817;52.798;27.544;2023-01-27T08:06:28;1028.6;;;2;70.4
61880;BME280;47817;52.798;27.544;2023-01-27T08:11:16;1028.6;;;2.2;69.9
61880;BME280;47817;52.798;27.544;2023-01-27T08:16:54;1028.6;;;2.3;69.3
61880;BME280;47817;52.798;27.544;2023-01-27T08:21:08;1028.7;;;2.2;68.8
61880;BME280;47817;52.798;27.544;2023-01-27T08:26:42;1028.7;;;2.1;68.2
61880;BME280;47817;52.798;27.544;2023-01-27T08:31:50;1028.7;;;2.1;67.5
61880;BME280;47817;52.798;27.544;2023-01-27T08:36:52;1028.7;;;2.2;67.6
61880;BME280;47817;52.798;27.544;2023-01-27T08:41:28;1028.8;;;2.1;67
61880;BME280;47817;52.798;27.544;2023-01-27T08:46:55;1028.8;;;2.1;66.8
61880;BME280;47817;52.798;27.544;2023-01-27T08:51:16;1028.8;;;2.2;66.4
61880;BME280;47817;52.798;27.544;2023-01-27T08:56:07;1028.8;;;2.4;66.2
61880;BME280;47817;52.798;27.544;2023-01-27T09:01:28;1028.8;;;2.5;65.6
61880;BME280;47817;52.798;27.544;2023-01-27T09:06:36;1028.7;;;2.5;64.5
61880;BME280;47817;52.798;27.544;2023-01-27T09:11:28;1028.8;;;2.6;64.5
61880;BME280;47817;52.798;27.544;2023-01-27T09:16:07;1028.8;;;2.6;63.8
61880;BME280;47817;52.798;27.544;2023-01-27T09:21:32;1028.8;;;2.6;64.3
61880;BME280;47817;52.798;27.544;2023-01-27T09:26:40;1028.8;;;2.7;63.9
61880;BME280;47817;52.798;27.544;2023-01-27T09:31:30;1028.8;;;2.8;63.8
61880;BME280;47817;52.798;27.544;2023-01-27T09:36:16;1028.7;;;2.8;63.3
61880;BME280;47817;52.798;27.544;2023-01-27T09:41:56;1028.7;;;3;62.9
61880;BME280;47817;52.798;27.544;2023-01-27T09:46:39;1028.7;;;3.1;62.4
61880;BME280;47817;52.798;27.544;2023-01-27T09:51:22;1028.7;;;3.1;62
61880;BME280;47817;52.798;27.544;2023-01-27T09:56:34;1028.6;;;3.2;61.1
61880;BME280;47817;52.798;27.544;2023-01-27T10:01:08;1028.6;;;3.3;60.7
61880;BME280;47817;52.798;27.544;2023-01-27T10:06:34;1028.6;;;3.5;60.5
61880;BME280;47817;52.798;27.544;2023-01-27T10:11:29;1028.6;;;3.6;59.9
61880;BME280;47817;52.798;27.544;2023-01-27T10:16:21;1028.7;;;3.6;59.6
61880;BME280;47817;52.798;27.544;2023-01-27T10:21:53;1028.6;;;3.3;59.4
61880;BME280;47817;52.798;27.544;2023-01-27T10:26:33;1028.6;;;3.2;59.3
61880;BME280;47817;52.798;27.544;2023-01-27T10:31:16;1028.6;;;3.3;59.7
61880;BME280;47817;52.798;27.544;2023-01-27T10:36:54;1028.6;;;3.4;59.8
61880;BME280;47817;52.798;27.544;2023-01-27T10:41:28;1028.5;;;3.4;60
61880;BME280;47817;52.798;27.544;2023-01-27T10:46:08;1028.5;;;3.5;59.9
61880;BME280;47817;52.798;27.544;2023-01-27T10:51:29;1028.5;;;3.5;59.7
61880;BME280;47817;52.798;27.544;2023-01-27T10:56:08;1028.5;;;3.8;59.1
61880;BME280;47817;52.798;27.544;2023-01-27T11:01:06;1028.5;;;4;59.1
61880;BME280;47817;52.798;27.544;2023-01-27T11:06:52;1028.5;;;4.3;58.9
61880;BME280;47817;52.798;27.544;2023-01-27T11:11:30;1028.5;;;4.4;57.6
61880;BME280;47817;52.798;27.544;2023-01-27T11:16:41;1028.5;;;4.4;57.7
61880;BME280;47817;52.798;27.544;2023-01-27T11:21:08;1028.4;;;4.5;58.4
61880;BME280;47817;52.798;27.544;2023-01-27T11:26:55;1028.4;;;4.6;58.3
61880;BME280;47817;52.798;27.544;2023-01-27T11:31:29;1028.5;;;4.6;57.2
61880;BME280;47817;52.798;27.544;2023-01-27T11:36:38;1028.4;;;4.8;57
61880;BME280;47817;52.798;27.544;2023-01-27T11:41:06;1028.4;;;4.7;57
61880;BME280;47817;52.798;27.544;2023-01-27T11:46:52;1028.4;;;4.6;56.3
61880;BME280;47817;52.798;27.544;2023-01-27T11:51:19;1028.3;;;4.5;56.1
61880;BME280;47817;52.798;27.544;2023-01-27T11:56:50;1028.3;;;4.5;56.7
61880;BME280;47817;52.798;27.544;2023-01-27T12:01:49;1028.3;;;4.5;56.7
61880;BME280;47817;52.798;27.544;2023-01-27T12:06:40;1028.3;;;4.4;56.4
61880;BME280;47817;52.798;27.544;2023-01-27T12:11:18;1028.3;;;4.3;56.6
61880;BME280;47817;52.798;27.544;2023-01-27T12:16:34;1028.3;;;4.3;57
61880;BME280;47817;52.798;27.544;2023-01-27T12:21:38;1028.4;;;4.3;56.9
61880;BME280;47817;52.798;27.544;2023-01-27T12:26:07;1028.5;;;4.2;56.7
61880;BME280;47817;52.798;27.544;2023-01-27T12:31:43;1028.4;;;4.1;57.1
61880;BME280;47817;52.798;27.544;2023-01-27T12:36:10;1028.4;;;4.1;57.3
61880;BME280;47817;52.798;27.544;2023-01-27T12:41:38;1028.5;;;4.2;57.1
61880;BME280;47817;52.798;27.544;2023-01-27T12:46:30;1028.6;;;4.2;56.6
61880;BME280;47817;52.798;27.544;2023-01-27T12:51:53;1028.6;;;4.1;56.7
61880;BME280;47817;52.798;27.544;2023-01-27T12:56:40;1028.6;;;4;56.9
61880;BME280;47817;52.798;27.544;2023-01-27T13:01:36;1028.6;;;3.9;57.4
61880;BME280;47817;52.798;27.544;2023-01-27T13:06:53;1028.6;;;3.9;57.7
61880;BME280;47817;52.798;27.544;2023-01-27T13:11:06;1028.6;;;3.9;57.8
61880;BME280;47817;52.798;27.544;2023-01-27T13:16:53;1028.7;;;3.9;57.8
61880;BME280;47817;52.798;27.544;2023-01-27T13:21:19;1028.8;;;3.9;57.5
61880;BME280;47817;52.798;27.544;2023-01-27T13:26:40;1028.8;;;3.7;57.7
61880;BME280;47817;52.798;27.544;2023-01-27T13:31:08;1028.8;;;3.7;57.9
61880;BME280;47817;52.798;27.544;2023-01-27T13:36:54;1028.9;;;3.8;58.2
61880;BME280;47817;52.798;27.544;2023-01-27T13:41:30;1028.8;;;3.8;58.1
61880;BME280;47817;52.798;27.544;2023-01-27T13:46:40;1028.8;;;3.8;58
61880;BME280;47817;52.798;27.544;2023-01-27T13:51:40;1028.8;;;3.5;58.2
61880;BME280;47817;52.798;27.544;2023-01-27T13:56:56;1028.8;;;3.3;58.7
61880;BME280;47817;52.798;27.544;2023-01-27T14:01:35;1028.9;;;3.2;59.1
61880;BME280;47817;52.798;27.544;2023-01-27T14:06:11;1029;;;3.1;59.4
61880;BME280;47817;52.798;27.544;2023-01-27T14:11:44;1029;;;3;59.6
61880;BME280;47817;52.798;27.544;2023-01-27T14:16:20;1029;;;2.9;60
61880;BME280;47817;52.798;27.544;2023-01-27T14:21:44;1029;;;2.9;60.2
61880;BME280;47817;52.798;27.544;2023-01-27T14:26:10;1029.1;;;2.8;60.3
61880;BME280;47817;52.798;27.544;2023-01-27T14:31:55;1029.1;;;2.6;60.6
61880;BME280;47817;52.798;27.544;2023-01-27T14:36:15;1029;;;2.5;61
61880;BME280;47817;52.798;27.544;2023-01-27T14:41:44;1029;;;2.5;61.2
61880;BME280;47817;52.798;27.544;2023-01-27T14:46:46;1029;;;2.5;61.5
61880;BME280;47817;52.798;27.544;2023-01-27T14:51:56;1028.9;;;2.5;61.8
61880;BME280;47817;52.798;27.544;2023-01-27T14:56:29;1028.9;;;2.5;62.1
61880;BME280;47817;52.798;27.544;2023-01-27T15:01:09;1028.9;;;2.4;62.5
61880;BME280;47817;52.798;27.544;2023-01-27T15:06:55;1028.9;;;2.4;62.6
61880;BME280;47817;52.798;27.544;2023-01-27T15:11:35;1029;;;2.4;63.1
61880;BME280;47817;52.798;27.544;2023-01-27T15:16:45;1029;;;2.3;63.4
61880;BME280;47817;52.798;27.544;2023-01-27T15:22:11;1029.1;;;2.3;63.6
61880;BME280;47817;52.798;27.544;2023-01-27T15:26:54;1029.1;;;2.4;63.7
61880;BME280;47817;52.798;27.544;2023-01-27T15:31:23;1029.1;;;2.3;63.8
61880;BME280;47817;52.798;27.544;2023-01-27T15:36:58;1029.2;;;2.3;63.9
61880;BME280;47817;52.798;27.544;2023-01-27T15:42:08;1029.2;;;2.3;64
61880;BME280;47817;52.798;27.544;2023-01-27T15:46:26;1029.2;;;2.3;64.1
61880;BME280;47817;52.798;27.544;2023-01-27T15:51:55;1029.2;;;2.3;64.4
61880;BME280;47817;52.798;27.544;2023-01-27T15:56:18;1029.2;;;2.3;64.7
61880;BME280;47817;52.798;27.544;2023-01-27T16:01:29;1029.2;;;2.3;64.8
61880;BME280;47817;52.798;27.544;2023-01-27T16:06:07;1029.3;;;2.3;64.7
61880;BME280;47817;52.798;27.544;2023-01-27T16:11:39;1029.3;;;2.3;64.9
61880;BME280;47817;52.798;27.544;2023-01-27T16:17:02;1029.3;;;2.4;65
61880;BME280;47817;52.798;27.544;2023-01-27T16:21:34;1029.4;;;2.4;65.1
61880;BME280;47817;52.798;27.544;2023-01-27T16:26:33;1029.4;;;2.4;65.2
61880;BME280;47817;52.798;27.544;2023-01-27T16:31:56;1029.3;;;2.3;64.9
61880;BME280;47817;52.798;27.544;2023-01-27T16:36:40;1029.4;;;2.3;65.2
61880;BME280;47817;52.798;27.544;2023-01-27T16:41:14;1029.3;;;2.3;65.4
61880;BME280;47817;52.798;27.544;2023-01-27T16:46:29;1029.2;;;2.3;65.6
61880;BME280;47817;52.798;27.544;2023-01-27T16:51:19;1029.2;;;2.3;65.8
61880;BME280;47817;52.798;27.544;2023-01-27T16:56:29;1029.3;;;2.2;66.1
61880;BME280;47817;52.798;27.544;2023-01-27T17:01:40;1029.3;;;2.1;66.2
61880;BME280;47817;52.798;27.544;2023-01-27T17:06:30;1029.2;;;1.9;66.8
61880;BME280;47817;52.798;27.544;2023-01-27T17:11:54;1029.3;;;1.8;67.7
61880;BME280;47817;52.798;27.544;2023-01-27T17:16:20;1029.3;;;1.7;68.1
61880;BME280;47817;52.798;27.544;2023-01-27T17:21:41;1029.4;;;1.8;68.1
61880;BME280;47817;52.798;27.544;2023-01-27T17:26:28;1029.5;;;1.9;68
61880;BME280;47817;52.798;27.544;2023-01-27T17:31:40;1029.5;;;1.9;68.4
61880;BME280;47817;52.798;27.544;2023-01-27T17:36:07;1029.5;;;2;68
61880;BME280;47817;52.798;27.544;2023-01-27T17:41:54;1029.5;;;2;68
61880;BME280;47817;52.798;27.544;2023-01-27T17:46:09;1029.5;;;2.1;67.9
61880;BME280;47817;52.798;27.544;2023-01-27T17:51:54;1029.4;;;2.1;67.9
61880;BME280;47817;52.798;27.544;2023-01-27T17:56:44;1029.5;;;2.1;68
61880;BME280;47817;52.798;27.544;2023-01-27T18:01:40;1029.5;;;2.1;68
61880;BME280;47817;52.798;27.544;2023-01-27T18:06:42;1029.5;;;2.1;68
61880;BME280;47817;52.798;27.544;2023-01-27T18:11:34;1029.5;;;2.2;67.9
61880;BME280;47817;52.798;27.544;2023-01-27T18:16:42;1029.5;;;2.3;67.9
61880;BME280;47817;52.798;27.544;2023-01-27T18:21:23;1029.4;;;2.3;67.9
61880;BME280;47817;52.798;27.544;2023-01-27T18:26:42;1029.4;;;2.3;67.9
61880;BME280;47817;52.798;27.544;2023-01-27T18:31:11;1029.4;;;2.3;68
61880;BME280;47817;52.798;27.544;2023-01-27T18:36:54;1029.4;;;2.3;68.2
61880;BME280;47817;52.798;27.544;2023-01-27T18:41:21;1029.4;;;2.2;68.7
61880;BME280;47817;52.798;27.544;2023-01-27T18:46:58;1029.3;;;2.2;68.9
61880;BME280;47817;52.798;27.544;2023-01-27T18:51:54;1029.4;;;2.1;69.2
61880;BME280;47817;52.798;27.544;2023-01-27T18:56:44;1029.4;;;2.1;69.4
61880;BME280;47817;52.798;27.544;2023-01-27T19:01:40;1029.5;;;2;69.5
61880;BME280;47817;52.798;27.544;2023-01-27T19:06:32;1029.5;;;2;69.3
61880;BME280;47817;52.798;27.544;2023-01-27T19:11:42;1029.6;;;2;69
61880;BME280;47817;52.798;27.544;2023-01-27T19:16:22;1029.6;;;2;68.6
61880;BME280;47817;52.798;27.544;2023-01-27T19:21:40;1029.6;;;2;68.6
61880;BME280;47817;52.798;27.544;2023-01-27T19:26:08;1029.6;;;2;68.5
61880;BME280;47817;52.798;27.544;2023-01-27T19:31:42;1029.6;;;1.9;68.4
61880;BME280;47817;52.798;27.544;2023-01-27T19:36:17;1029.7;;;1.9;68.5
61880;BME280;47817;52.798;27.544;2023-01-27T19:41:56;1029.7;;;2;68.3
61880;BME280;47817;52.798;27.544;2023-01-27T19:46:42;1029.7;;;2;68.1
61880;BME280;47817;52.798;27.544;2023-01-27T19:51:34;1029.6;;;1.9;68.3
61880;BME280;47817;52.798;27.544;2023-01-27T19:56:44;1029.6;;;1.9;68.6
61880;BME280;47817;52.798;27.544;2023-01-27T20:01:34;1029.6;;;1.9;68.8
61880;BME280;47817;52.798;27.544;2023-01-27T20:06:42;1029.6;;;1.9;69.1
61880;BME280;47817;52.798;27.544;2023-01-27T20:11:13;1029.6;;;1.8;69.4
61880;BME280;47817;52.798;27.544;2023-01-27T20:16:18;1029.6;;;1.7;69.9
61880;BME280;47817;52.798;27.544;2023-01-27T20:21:07;1029.6;;;1.7;70.3
61880;BME280;47817;52.798;27.544;2023-01-27T20:26:54;1029.6;;;1.6;70.3
61880;BME280;47817;52.798;27.544;2023-01-27T20:31:09;1029.6;;;1.5;70.6
61880;BME280;47817;52.798;27.544;2023-01-27T20:36:40;1029.6;;;1.4;70.8
61880;BME280;47817;52.798;27.544;2023-01-27T20:41:42;1029.6;;;1.4;71
61880;BME280;47817;52.798;27.544;2023-01-27T20:46:54;1029.6;;;1.4;71.2
61880;BME280;47817;52.798;27.544;2023-01-27T20:51:32;1029.7;;;1.4;71.2
61880;BME280;47817;52.798;27.544;2023-01-27T20:56:21;1029.8;;;1.4;71.7
61880;BME280;47817;52.798;27.544;2023-01-27T21:01:52;1029.8;;;1.4;71.9
61880;BME280;47817;52.798;27.544;2023-01-27T21:06:19;1029.8;;;1.5;72.1
61880;BME280;47817;52.798;27.544;2023-01-27T21:11:44;1029.8;;;1.6;72.3
61880;BME280;47817;52.798;27.544;2023-01-27T21:16:54;1029.8;;;1.7;72.3
61880;BME280;47817;52.798;27.544;2023-01-27T21:21:56;1029.8;;;1.8;72
61880;BME280;47817;52.798;27.544;2023-01-27T21:26:19;1029.8;;;1.8;72.1
61880;BME280;47817;52.798;27.544;2023-01-27T21:31:50;1029.8;;;1.8;72
61880;BME280;47817;52.798;27.544;2023-01-27T21:36:27;1029.9;;;1.9;72.2
61880;BME280;47817;52.798;27.544;2023-01-27T21:41:19;1029.9;;;1.8;72.4
61880;BME280;47817;52.798;27.544;2023-01-27T21:46:16;1029.9;;;1.8;72.8
61880;BME280;47817;52.798;27.544;2023-01-27T21:51:30;1029.9;;;1.8;73.2
61880;BME280;47817;52.798;27.544;2023-01-27T21:56:28;1029.9;;;1.7;73.5
61880;BME280;47817;52.798;27.544;2023-01-27T22:01:07;1029.9;;;1.6;73.8
61880;BME280;47817;52.798;27.544;2023-01-27T22:06:07;1029.8;;;1.4;74.7
61880;BME280;47817;52.798;27.544;2023-01-27T22:11:44;1029.8;;;1.3;75.4
61880;BME280;47817;52.798;27.544;2023-01-27T22:16:09;1029.9;;;1.3;75.3
61880;BME280;47817;52.798;27.544;2023-01-27T22:21:28;1029.9;;;1.2;75.8
61880;BME280;47817;52.798;27.544;2023-01-27T22:26:52;1029.8;;;1.1;76.9
61880;BME280;47817;52.798;27.544;2023-01-27T22:31:38;1029.8;;;1.1;77.4
61880;BME280;47817;52.798;27.544;2023-01-27T22:36:20;1029.7;;;1.1;77.7
61880;BME280;47817;52.798;27.544;2023-01-27T22:41:06;1029.8;;;1.1;78
61880;BME280;47817;52.798;27.544;2023-01-27T22:46:30;1029.8;;;1.2;78
61880;BME280;47817;52.798;27.544;2023-01-27T22:51:18;1029.8;;;1.2;78.5
61880;BME280;47817;52.798;27.544;2023-01-27T22:56:07;1029.8;;;1.2;78.6
61880;BME280;47817;52.798;27.544;2023-01-27T23:01:27;1029.8;;;1.3;78.8
61880;BME280;47817;52.798;27.544;2023-01-27T23:06:52;1029.8;;;1.4;78.9
61880;BME280;47817;52.798;27.544;2023-01-27T23:11:40;1029.8;;;1.4;78.9
61880;BME280;47817;52.798;27.544;2023-01-27T23:16:38;1029.8;;;1.4;78.9
61880;BME280;47817;52.798;27.544;2023-01-27T23:21:52;1029.8;;;1.4;79.3
61880;BME280;47817;52.798;27.544;2023-01-27T23:26:38;1029.7;;;1.3;79.2
61880;BME280;47817;52.798;27.544;2023-01-27T23:31:18;1029.7;;;1.3;79.6
61880;BME280;47817;52.798;27.544;2023-01-27T23:36:28;1029.7;;;1.3;79.7
61880;BME280;47817;52.798;27.544;2023-01-27T23:41:09;1029.7;;;1.2;79.7
61880;BME280;47817;52.798;27.544;2023-01-27T23:46:28;1029.7;;;1.1;80.1
61880;BME280;47817;52.798;27.544;2023-01-27T23:51:50;1029.8;;;1.1;80.3
61880;BME280;47817;52.798;27.544;2023-01-27T23:56:18;1029.8;;;1.1;80.3
